sensor_id;sensor_type;location;lat;lon;timestamp;temperature;humidity
20744;DHT22;56303;52.160;-0.428;2023-04-28T00:00:18;9.70;99.90
20744;DHT22;56303;52.160;-0.428;2023-04-28T00:02:45;9.70;99.90
20744;DHT22;56303;52.160;-0.428;2023-04-28T00:05:14;9.80;99.90
20744;DHT22;56303;52.160;-0.428;2023-04-28T00:07:41;9.70;99.90
20744;DHT22;56303;52.160;-0.428;2023-04-28T00:10:08;9.80;99.90
20744;DHT22;56303;52.160;-0.428;2023-04-28T00:12:36;9.70;99.90
20744;DHT22;56303;52.160;-0.428;2023-04-28T00:15:03;9.70;99.90
20744;DHT22;56303;52.160;-0.428;2023-04-28T00:17:30;9.90;99.90
20744;DHT22;56303;52.160;-0.428;2023-04-28T00:19:57;10.10;99.90
20744;DHT22;56303;52.160;-0.428;2023-04-28T00:22:24;10.00;99.90
20744;DHT22;56303;52.160;-0.428;2023-04-28T00:24:51;10.10;99.90
20744;DHT22;56303;52.160;-0.428;2023-04-28T00:27:18;10.30;99.90
20744;DHT22;56303;52.160;-0.428;2023-04-28T00:29:46;10.20;99.90
20744;DHT22;56303;52.160;-0.428;2023-04-28T00:32:12;10.20;99.90
20744;DHT22;56303;52.160;-0.428;2023-04-28T00:34:39;10.00;99.90
20744;DHT22;56303;52.160;-0.428;2023-04-28T00:37:06;9.90;99.90
20744;DHT22;56303;52.160;-0.428;2023-04-28T00:39:33;10.10;99.90
20744;DHT22;56303;52.160;-0.428;2023-04-28T00:42:00;10.40;99.90
20744;DHT22;56303;52.160;-0.428;2023-04-28T00:44:27;10.40;99.90
20744;DHT22;56303;52.160;-0.428;2023-04-28T00:46:55;10.70;99.90
20744;DHT22;56303;52.160;-0.428;2023-04-28T00:49:23;10.70;99.90
20744;DHT22;56303;52.160;-0.428;2023-04-28T00:51:50;10.30;99.90
20744;DHT22;56303;52.160;-0.428;2023-04-28T00:54:17;10.40;99.90
20744;DHT22;56303;52.160;-0.428;2023-04-28T00:56:44;10.50;99.90
20744;DHT22;56303;52.160;-0.428;2023-04-28T00:59:12;10.40;99.90
20744;DHT22;56303;52.160;-0.428;2023-04-28T01:01:38;10.80;99.90
20744;DHT22;56303;52.160;-0.428;2023-04-28T01:04:05;10.80;99.90
20744;DHT22;56303;52.160;-0.428;2023-04-28T01:06:33;10.70;99.90
20744;DHT22;56303;52.160;-0.428;2023-04-28T01:09:01;10.80;99.90
20744;DHT22;56303;52.160;-0.428;2023-04-28T01:11:28;10.60;99.90
20744;DHT22;56303;52.160;-0.428;2023-04-28T01:13:55;10.60;99.90
20744;DHT22;56303;52.160;-0.428;2023-04-28T01:16:22;9.10;99.90
20744;DHT22;56303;52.160;-0.428;2023-04-28T01:18:51;10.40;99.90
20744;DHT22;56303;52.160;-0.428;2023-04-28T01:21:27;10.60;99.90
20744;DHT22;56303;52.160;-0.428;2023-04-28T01:23:58;10.90;99.90
20744;DHT22;56303;52.160;-0.428;2023-04-28T01:26:25;10.80;99.90
20744;DHT22;56303;52.160;-0.428;2023-04-28T01:28:52;10.80;99.90
20744;DHT22;56303;52.160;-0.428;2023-04-28T01:31:19;10.90;99.90
20744;DHT22;56303;52.160;-0.428;2023-04-28T01:33:46;11.10;99.90
20744;DHT22;56303;52.160;-0.428;2023-04-28T01:36:12;10.90;99.90
20744;DHT22;56303;52.160;-0.428;2023-04-28T01:38:39;10.80;99.90
20744;DHT22;56303;52.160;-0.428;2023-04-28T01:41:06;9.00;99.90
20744;DHT22;56303;52.160;-0.428;2023-04-28T01:43:33;10.60;99.90
20744;DHT22;56303;52.160;-0.428;2023-04-28T01:45:59;10.70;99.90
20744;DHT22;56303;52.160;-0.428;2023-04-28T01:48:26;10.70;99.90
20744;DHT22;56303;52.160;-0.428;2023-04-28T01:50:53;10.80;99.90
20744;DHT22;56303;52.160;-0.428;2023-04-28T01:53:20;9.80;99.90
20744;DHT22;56303;52.160;-0.428;2023-04-28T01:55:47;11.00;99.90
20744;DHT22;56303;52.160;-0.428;2023-04-28T01:58:14;10.80;99.90
20744;DHT22;56303;52.160;-0.428;2023-04-28T02:00:40;10.90;99.90
20744;DHT22;56303;52.160;-0.428;2023-04-28T02:03:07;11.10;99.90
20744;DHT22;56303;52.160;-0.428;2023-04-28T02:05:34;11.10;99.90
20744;DHT22;56303;52.160;-0.428;2023-04-28T02:08:01;11.00;99.90
20744;DHT22;56303;52.160;-0.428;2023-04-28T02:10:28;11.00;99.90
20744;DHT22;56303;52.160;-0.428;2023-04-28T02:12:54;11.00;99.90
20744;DHT22;56303;52.160;-0.428;2023-04-28T02:15:21;11.10;99.90
20744;DHT22;56303;52.160;-0.428;2023-04-28T02:17:48;11.10;99.90
20744;DHT22;56303;52.160;-0.428;2023-04-28T02:20:15;11.40;99.90
20744;DHT22;56303;52.160;-0.428;2023-04-28T02:22:42;11.40;99.90
20744;DHT22;56303;52.160;-0.428;2023-04-28T02:25:09;11.70;99.90
20744;DHT22;56303;52.160;-0.428;2023-04-28T02:27:36;11.90;99.90
20744;DHT22;56303;52.160;-0.428;2023-04-28T02:30:04;12.10;99.90
20744;DHT22;56303;52.160;-0.428;2023-04-28T02:32:31;12.10;99.90
20744;DHT22;56303;52.160;-0.428;2023-04-28T02:34:58;13.70;99.90
20744;DHT22;56303;52.160;-0.428;2023-04-28T02:37:25;12.30;99.90
20744;DHT22;56303;52.160;-0.428;2023-04-28T02:39:51;12.40;99.90
20744;DHT22;56303;52.160;-0.428;2023-04-28T02:42:19;12.50;99.90
20744;DHT22;56303;52.160;-0.428;2023-04-28T02:44:45;12.50;99.90
20744;DHT22;56303;52.160;-0.428;2023-04-28T02:47:12;12.50;99.90
20744;DHT22;56303;52.160;-0.428;2023-04-28T02:49:39;12.50;99.90
20744;DHT22;56303;52.160;-0.428;2023-04-28T02:52:06;12.50;99.90
20744;DHT22;56303;52.160;-0.428;2023-04-28T02:54:32;12.40;99.90
20744;DHT22;56303;52.160;-0.428;2023-04-28T02:57:05;12.60;99.90
20744;DHT22;56303;52.160;-0.428;2023-04-28T02:59:32;12.60;99.90
20744;DHT22;56303;52.160;-0.428;2023-04-28T03:01:58;12.70;99.90
20744;DHT22;56303;52.160;-0.428;2023-04-28T03:04:25;12.70;99.90
20744;DHT22;56303;52.160;-0.428;2023-04-28T03:06:53;12.70;99.90
20744;DHT22;56303;52.160;-0.428;2023-04-28T03:09:19;12.80;99.90
20744;DHT22;56303;52.160;-0.428;2023-04-28T03:11:46;12.80;99.90
20744;DHT22;56303;52.160;-0.428;2023-04-28T03:14:13;12.90;99.90
20744;DHT22;56303;52.160;-0.428;2023-04-28T03:16:40;12.90;99.90
20744;DHT22;56303;52.160;-0.428;2023-04-28T03:19:07;13.00;99.90
20744;DHT22;56303;52.160;-0.428;2023-04-28T03:21:34;13.00;99.90
20744;DHT22;56303;52.160;-0.428;2023-04-28T03:24:01;13.10;99.90
20744;DHT22;56303;52.160;-0.428;2023-04-28T03:26:31;13.10;99.90
20744;DHT22;56303;52.160;-0.428;2023-04-28T03:28:58;13.00;99.90
20744;DHT22;56303;52.160;-0.428;2023-04-28T03:31:24;13.10;99.90
20744;DHT22;56303;52.160;-0.428;2023-04-28T03:33:51;13.10;99.90
20744;DHT22;56303;52.160;-0.428;2023-04-28T03:36:18;13.20;99.90
20744;DHT22;56303;52.160;-0.428;2023-04-28T03:38:45;13.20;99.90
20744;DHT22;56303;52.160;-0.428;2023-04-28T03:41:11;13.30;99.90
20744;DHT22;56303;52.160;-0.428;2023-04-28T03:43:38;13.20;99.90
20744;DHT22;56303;52.160;-0.428;2023-04-28T03:46:05;13.20;99.90
20744;DHT22;56303;52.160;-0.428;2023-04-28T03:48:32;13.20;99.90
20744;DHT22;56303;52.160;-0.428;2023-04-28T03:50:59;13.20;99.90
20744;DHT22;56303;52.160;-0.428;2023-04-28T03:53:25;13.20;99.90
20744;DHT22;56303;52.160;-0.428;2023-04-28T03:55:52;13.20;99.90
20744;DHT22;56303;52.160;-0.428;2023-04-28T03:58:19;13.10;99.90
20744;DHT22;56303;52.160;-0.428;2023-04-28T04:00:46;13.20;99.90
20744;DHT22;56303;52.160;-0.428;2023-04-28T04:03:13;13.30;99.90
20744;DHT22;56303;52.160;-0.428;2023-04-28T04:05:40;13.40;99.90
20744;DHT22;56303;52.160;-0.428;2023-04-28T04:08:07;13.40;99.90
20744;DHT22;56303;52.160;-0.428;2023-04-28T04:10:34;13.40;99.90
20744;DHT22;56303;52.160;-0.428;2023-04-28T04:13:01;13.40;99.90
20744;DHT22;56303;52.160;-0.428;2023-04-28T04:15:28;13.40;99.90
20744;DHT22;56303;52.160;-0.428;2023-04-28T04:17:55;13.50;99.90
20744;DHT22;56303;52.160;-0.428;2023-04-28T04:20:22;13.50;99.90
20744;DHT22;56303;52.160;-0.428;2023-04-28T04:22:48;13.50;99.90
20744;DHT22;56303;52.160;-0.428;2023-04-28T04:25:15;13.60;99.90
20744;DHT22;56303;52.160;-0.428;2023-04-28T04:27:42;13.70;99.90
20744;DHT22;56303;52.160;-0.428;2023-04-28T04:30:09;13.70;99.90
20744;DHT22;56303;52.160;-0.428;2023-04-28T04:32:36;13.70;99.90
20744;DHT22;56303;52.160;-0.428;2023-04-28T04:35:03;13.70;99.90
20744;DHT22;56303;52.160;-0.428;2023-04-28T04:37:30;13.80;99.90
20744;DHT22;56303;52.160;-0.428;2023-04-28T04:39:57;13.90;99.90
20744;DHT22;56303;52.160;-0.428;2023-04-28T04:42:23;14.00;99.90
20744;DHT22;56303;52.160;-0.428;2023-04-28T04:44:51;14.10;99.90
20744;DHT22;56303;52.160;-0.428;2023-04-28T04:47:18;14.00;99.90
20744;DHT22;56303;52.160;-0.428;2023-04-28T04:49:45;14.00;99.90
20744;DHT22;56303;52.160;-0.428;2023-04-28T04:52:12;13.90;99.90
20744;DHT22;56303;52.160;-0.428;2023-04-28T04:54:39;14.00;99.90
20744;DHT22;56303;52.160;-0.428;2023-04-28T04:57:06;14.10;99.90
20744;DHT22;56303;52.160;-0.428;2023-04-28T04:59:33;14.10;99.90
20744;DHT22;56303;52.160;-0.428;2023-04-28T05:01:59;14.00;99.90
20744;DHT22;56303;52.160;-0.428;2023-04-28T05:04:26;13.80;99.90
20744;DHT22;56303;52.160;-0.428;2023-04-28T05:06:53;13.70;99.90
20744;DHT22;56303;52.160;-0.428;2023-04-28T05:09:20;13.60;99.90
20744;DHT22;56303;52.160;-0.428;2023-04-28T05:11:48;13.70;99.90
20744;DHT22;56303;52.160;-0.428;2023-04-28T05:14:15;13.60;99.90
20744;DHT22;56303;52.160;-0.428;2023-04-28T05:16:43;13.60;99.90
20744;DHT22;56303;52.160;-0.428;2023-04-28T05:19:10;13.70;99.90
20744;DHT22;56303;52.160;-0.428;2023-04-28T05:21:37;13.70;99.90
20744;DHT22;56303;52.160;-0.428;2023-04-28T05:24:04;13.70;99.90
20744;DHT22;56303;52.160;-0.428;2023-04-28T05:26:31;13.60;99.90
20744;DHT22;56303;52.160;-0.428;2023-04-28T05:28:58;13.70;99.90
20744;DHT22;56303;52.160;-0.428;2023-04-28T05:31:24;13.90;99.90
20744;DHT22;56303;52.160;-0.428;2023-04-28T05:33:51;13.90;99.90
20744;DHT22;56303;52.160;-0.428;2023-04-28T05:36:18;14.90;99.90
20744;DHT22;56303;52.160;-0.428;2023-04-28T05:38:45;14.10;99.90
20744;DHT22;56303;52.160;-0.428;2023-04-28T05:41:12;14.10;99.90
20744;DHT22;56303;52.160;-0.428;2023-04-28T05:43:39;13.90;99.90
20744;DHT22;56303;52.160;-0.428;2023-04-28T05:46:05;13.80;99.90
20744;DHT22;56303;52.160;-0.428;2023-04-28T05:48:47;13.30;99.90
20744;DHT22;56303;52.160;-0.428;2023-04-28T05:51:14;13.70;99.90
20744;DHT22;56303;52.160;-0.428;2023-04-28T05:53:41;13.70;99.90
20744;DHT22;56303;52.160;-0.428;2023-04-28T05:56:08;13.80;99.90
20744;DHT22;56303;52.160;-0.428;2023-04-28T05:58:35;13.80;99.90
20744;DHT22;56303;52.160;-0.428;2023-04-28T06:01:01;13.80;99.90
20744;DHT22;56303;52.160;-0.428;2023-04-28T06:03:28;13.80;99.90
20744;DHT22;56303;52.160;-0.428;2023-04-28T06:05:55;13.90;99.90
20744;DHT22;56303;52.160;-0.428;2023-04-28T06:08:22;13.90;99.90
20744;DHT22;56303;52.160;-0.428;2023-04-28T06:10:49;15.10;99.90
20744;DHT22;56303;52.160;-0.428;2023-04-28T06:13:16;13.90;99.90
20744;DHT22;56303;52.160;-0.428;2023-04-28T06:15:43;13.90;99.90
20744;DHT22;56303;52.160;-0.428;2023-04-28T06:18:10;14.10;99.90
20744;DHT22;56303;52.160;-0.428;2023-04-28T06:20:37;14.20;99.90
20744;DHT22;56303;52.160;-0.428;2023-04-28T06:23:03;14.20;99.90
20744;DHT22;56303;52.160;-0.428;2023-04-28T06:25:30;14.20;99.90
20744;DHT22;56303;52.160;-0.428;2023-04-28T06:27:57;14.30;99.90
20744;DHT22;56303;52.160;-0.428;2023-04-28T06:30:24;14.50;99.90
20744;DHT22;56303;52.160;-0.428;2023-04-28T06:32:51;14.60;99.90
20744;DHT22;56303;52.160;-0.428;2023-04-28T06:35:18;14.80;99.90
20744;DHT22;56303;52.160;-0.428;2023-04-28T06:37:44;14.50;99.90
20744;DHT22;56303;52.160;-0.428;2023-04-28T06:40:11;14.50;99.90
20744;DHT22;56303;52.160;-0.428;2023-04-28T06:42:38;14.30;99.90
20744;DHT22;56303;52.160;-0.428;2023-04-28T06:45:05;14.20;99.90
20744;DHT22;56303;52.160;-0.428;2023-04-28T06:47:33;14.20;99.90
20744;DHT22;56303;52.160;-0.428;2023-04-28T06:49:59;14.20;99.90
20744;DHT22;56303;52.160;-0.428;2023-04-28T06:52:27;14.00;99.90
20744;DHT22;56303;52.160;-0.428;2023-04-28T06:55:06;14.00;99.90
20744;DHT22;56303;52.160;-0.428;2023-04-28T06:57:33;14.20;99.90
20744;DHT22;56303;52.160;-0.428;2023-04-28T07:00:00;14.20;99.90
20744;DHT22;56303;52.160;-0.428;2023-04-28T07:02:26;14.20;99.90
20744;DHT22;56303;52.160;-0.428;2023-04-28T07:04:56;14.20;99.90
20744;DHT22;56303;52.160;-0.428;2023-04-28T07:07:23;14.30;99.90
20744;DHT22;56303;52.160;-0.428;2023-04-28T07:09:50;14.30;99.90
20744;DHT22;56303;52.160;-0.428;2023-04-28T07:12:20;14.30;99.90
20744;DHT22;56303;52.160;-0.428;2023-04-28T07:14:47;14.30;99.90
20744;DHT22;56303;52.160;-0.428;2023-04-28T07:17:14;14.50;99.90
20744;DHT22;56303;52.160;-0.428;2023-04-28T07:19:42;13.30;99.90
20744;DHT22;56303;52.160;-0.428;2023-04-28T07:22:09;14.20;99.90
20744;DHT22;56303;52.160;-0.428;2023-04-28T07:24:35;14.10;99.90
20744;DHT22;56303;52.160;-0.428;2023-04-28T07:27:03;14.10;99.90
20744;DHT22;56303;52.160;-0.428;2023-04-28T07:29:29;14.20;99.90
20744;DHT22;56303;52.160;-0.428;2023-04-28T07:32:00;14.00;99.90
20744;DHT22;56303;52.160;-0.428;2023-04-28T07:34:32;14.60;99.90
20744;DHT22;56303;52.160;-0.428;2023-04-28T07:36:59;14.50;99.90
20744;DHT22;56303;52.160;-0.428;2023-04-28T07:39:26;14.40;99.90
20744;DHT22;56303;52.160;-0.428;2023-04-28T07:41:53;14.40;99.90
20744;DHT22;56303;52.160;-0.428;2023-04-28T07:44:20;14.10;99.90
20744;DHT22;56303;52.160;-0.428;2023-04-28T07:46:47;14.10;99.90
20744;DHT22;56303;52.160;-0.428;2023-04-28T07:49:17;14.20;99.90
20744;DHT22;56303;52.160;-0.428;2023-04-28T07:51:44;14.40;99.90
20744;DHT22;56303;52.160;-0.428;2023-04-28T07:54:11;14.50;99.90
20744;DHT22;56303;52.160;-0.428;2023-04-28T07:56:38;14.60;99.90
20744;DHT22;56303;52.160;-0.428;2023-04-28T07:59:05;14.60;99.90
20744;DHT22;56303;52.160;-0.428;2023-04-28T08:01:32;14.30;99.90
20744;DHT22;56303;52.160;-0.428;2023-04-28T08:03:58;14.30;99.90
20744;DHT22;56303;52.160;-0.428;2023-04-28T08:06:26;14.30;99.90
20744;DHT22;56303;52.160;-0.428;2023-04-28T08:08:53;14.20;99.90
20744;DHT22;56303;52.160;-0.428;2023-04-28T08:11:21;14.40;99.90
20744;DHT22;56303;52.160;-0.428;2023-04-28T08:13:48;14.70;99.90
20744;DHT22;56303;52.160;-0.428;2023-04-28T08:16:15;14.80;99.90
20744;DHT22;56303;52.160;-0.428;2023-04-28T08:18:42;14.60;99.90
20744;DHT22;56303;52.160;-0.428;2023-04-28T08:21:09;14.40;99.90
20744;DHT22;56303;52.160;-0.428;2023-04-28T08:23:36;14.30;99.90
20744;DHT22;56303;52.160;-0.428;2023-04-28T08:26:03;14.50;99.90
20744;DHT22;56303;52.160;-0.428;2023-04-28T08:28:31;14.50;99.90
20744;DHT22;56303;52.160;-0.428;2023-04-28T08:30:59;14.70;99.90
20744;DHT22;56303;52.160;-0.428;2023-04-28T08:33:26;14.60;99.90
20744;DHT22;56303;52.160;-0.428;2023-04-28T08:35:54;14.60;99.90
20744;DHT22;56303;52.160;-0.428;2023-04-28T08:38:22;14.80;99.90
20744;DHT22;56303;52.160;-0.428;2023-04-28T08:40:50;15.00;99.90
20744;DHT22;56303;52.160;-0.428;2023-04-28T08:43:18;15.10;99.90
20744;DHT22;56303;52.160;-0.428;2023-04-28T08:45:47;16.60;99.90
20744;DHT22;56303;52.160;-0.428;2023-04-28T08:48:21;15.30;99.90
20744;DHT22;56303;52.160;-0.428;2023-04-28T08:50:52;15.30;99.90
20744;DHT22;56303;52.160;-0.428;2023-04-28T08:53:25;15.10;99.90
20744;DHT22;56303;52.160;-0.428;2023-04-28T08:55:56;14.90;99.90
20744;DHT22;56303;52.160;-0.428;2023-04-28T08:58:25;14.90;99.90
20744;DHT22;56303;52.160;-0.428;2023-04-28T09:00:52;14.90;99.90
20744;DHT22;56303;52.160;-0.428;2023-04-28T09:03:20;14.60;99.90
20744;DHT22;56303;52.160;-0.428;2023-04-28T09:05:47;14.70;99.90
20744;DHT22;56303;52.160;-0.428;2023-04-28T09:08:14;14.70;99.90
20744;DHT22;56303;52.160;-0.428;2023-04-28T09:10:42;14.90;99.90
20744;DHT22;56303;52.160;-0.428;2023-04-28T09:13:24;15.10;99.90
20744;DHT22;56303;52.160;-0.428;2023-04-28T09:15:58;15.30;99.90
20744;DHT22;56303;52.160;-0.428;2023-04-28T09:18:25;15.10;99.90
20744;DHT22;56303;52.160;-0.428;2023-04-28T09:21:04;15.10;99.90
20744;DHT22;56303;52.160;-0.428;2023-04-28T09:23:32;15.20;99.90
20744;DHT22;56303;52.160;-0.428;2023-04-28T09:26:04;15.30;99.90
20744;DHT22;56303;52.160;-0.428;2023-04-28T09:28:34;15.50;99.90
20744;DHT22;56303;52.160;-0.428;2023-04-28T09:31:02;15.20;99.90
20744;DHT22;56303;52.160;-0.428;2023-04-28T09:33:30;15.50;99.90
20744;DHT22;56303;52.160;-0.428;2023-04-28T09:35:57;15.20;99.90
20744;DHT22;56303;52.160;-0.428;2023-04-28T09:38:24;14.80;99.90
20744;DHT22;56303;52.160;-0.428;2023-04-28T09:40:57;14.80;99.90
20744;DHT22;56303;52.160;-0.428;2023-04-28T09:43:28;14.80;99.90
20744;DHT22;56303;52.160;-0.428;2023-04-28T09:45:57;14.70;99.90
20744;DHT22;56303;52.160;-0.428;2023-04-28T09:48:31;14.70;99.90
20744;DHT22;56303;52.160;-0.428;2023-04-28T09:51:03;14.80;99.90
20744;DHT22;56303;52.160;-0.428;2023-04-28T09:53:36;16.00;99.90
20744;DHT22;56303;52.160;-0.428;2023-04-28T09:56:10;15.10;99.90
20744;DHT22;56303;52.160;-0.428;2023-04-28T09:58:39;14.70;99.90
20744;DHT22;56303;52.160;-0.428;2023-04-28T10:01:08;14.70;99.90
20744;DHT22;56303;52.160;-0.428;2023-04-28T10:03:38;14.70;99.90
20744;DHT22;56303;52.160;-0.428;2023-04-28T10:06:08;15.10;99.90
20744;DHT22;56303;52.160;-0.428;2023-04-28T10:08:35;15.70;99.90
20744;DHT22;56303;52.160;-0.428;2023-04-28T10:11:03;15.70;99.90
20744;DHT22;56303;52.160;-0.428;2023-04-28T10:13:31;15.90;99.90
20744;DHT22;56303;52.160;-0.428;2023-04-28T10:16:01;15.80;99.90
20744;DHT22;56303;52.160;-0.428;2023-04-28T10:18:29;16.40;99.90
20744;DHT22;56303;52.160;-0.428;2023-04-28T10:20:59;16.50;99.90
20744;DHT22;56303;52.160;-0.428;2023-04-28T10:26:20;16.20;99.90
20744;DHT22;56303;52.160;-0.428;2023-04-28T10:28:50;16.20;99.90
20744;DHT22;56303;52.160;-0.428;2023-04-28T10:31:18;16.20;99.90
20744;DHT22;56303;52.160;-0.428;2023-04-28T10:33:47;16.20;99.90
20744;DHT22;56303;52.160;-0.428;2023-04-28T10:36:46;16.10;99.90
20744;DHT22;56303;52.160;-0.428;2023-04-28T10:39:15;16.00;99.90
20744;DHT22;56303;52.160;-0.428;2023-04-28T10:41:44;16.00;99.90
20744;DHT22;56303;52.160;-0.428;2023-04-28T10:47:07;16.00;99.90
20744;DHT22;56303;52.160;-0.428;2023-04-28T10:55:32;15.90;99.90
20744;DHT22;56303;52.160;-0.428;2023-04-28T11:00:42;15.60;99.90
20744;DHT22;56303;52.160;-0.428;2023-04-28T11:03:45;15.50;99.90
20744;DHT22;56303;52.160;-0.428;2023-04-28T11:11:38;16.10;99.90
20744;DHT22;56303;52.160;-0.428;2023-04-28T11:17:01;16.10;99.90
20744;DHT22;56303;52.160;-0.428;2023-04-28T11:19:35;16.40;99.90
20744;DHT22;56303;52.160;-0.428;2023-04-28T11:22:22;15.60;99.90
20744;DHT22;56303;52.160;-0.428;2023-04-28T11:25:00;15.40;99.90
20744;DHT22;56303;52.160;-0.428;2023-04-28T11:27:32;15.70;99.90
20744;DHT22;56303;52.160;-0.428;2023-04-28T11:29:59;15.90;99.90
20744;DHT22;56303;52.160;-0.428;2023-04-28T11:32:29;15.80;99.90
20744;DHT22;56303;52.160;-0.428;2023-04-28T11:34:56;15.40;99.90
20744;DHT22;56303;52.160;-0.428;2023-04-28T11:37:24;15.00;99.90
20744;DHT22;56303;52.160;-0.428;2023-04-28T11:39:51;15.30;99.90
20744;DHT22;56303;52.160;-0.428;2023-04-28T11:42:18;15.60;99.90
20744;DHT22;56303;52.160;-0.428;2023-04-28T11:44:52;15.70;99.90
20744;DHT22;56303;52.160;-0.428;2023-04-28T11:47:32;15.00;99.90
20744;DHT22;56303;52.160;-0.428;2023-04-28T11:50:00;16.60;99.90
20744;DHT22;56303;52.160;-0.428;2023-04-28T11:52:29;16.90;99.90
20744;DHT22;56303;52.160;-0.428;2023-04-28T11:54:56;16.50;99.90
20744;DHT22;56303;52.160;-0.428;2023-04-28T11:57:25;15.70;99.90
20744;DHT22;56303;52.160;-0.428;2023-04-28T11:59:52;15.60;99.90
20744;DHT22;56303;52.160;-0.428;2023-04-28T12:02:26;15.40;99.90
20744;DHT22;56303;52.160;-0.428;2023-04-28T12:04:54;15.70;99.90
20744;DHT22;56303;52.160;-0.428;2023-04-28T12:07:21;15.50;99.90
20744;DHT22;56303;52.160;-0.428;2023-04-28T12:10:14;15.50;99.90
20744;DHT22;56303;52.160;-0.428;2023-04-28T12:12:43;15.60;99.90
20744;DHT22;56303;52.160;-0.428;2023-04-28T12:15:19;15.50;99.90
20744;DHT22;56303;52.160;-0.428;2023-04-28T12:17:48;15.50;99.90
20744;DHT22;56303;52.160;-0.428;2023-04-28T12:20:35;14.00;99.90
20744;DHT22;56303;52.160;-0.428;2023-04-28T12:23:03;15.50;99.90
20744;DHT22;56303;52.160;-0.428;2023-04-28T12:25:30;15.50;99.90
20744;DHT22;56303;52.160;-0.428;2023-04-28T12:28:06;15.50;99.90
20744;DHT22;56303;52.160;-0.428;2023-04-28T12:30:36;15.30;99.90
20744;DHT22;56303;52.160;-0.428;2023-04-28T12:33:27;15.80;99.90
20744;DHT22;56303;52.160;-0.428;2023-04-28T12:35:56;16.00;99.90
20744;DHT22;56303;52.160;-0.428;2023-04-28T12:38:24;15.90;99.90
20744;DHT22;56303;52.160;-0.428;2023-04-28T12:40:51;16.50;99.90
20744;DHT22;56303;52.160;-0.428;2023-04-28T12:43:18;16.60;99.90
20744;DHT22;56303;52.160;-0.428;2023-04-28T12:45:52;16.50;99.90
20744;DHT22;56303;52.160;-0.428;2023-04-28T12:48:21;16.30;99.90
20744;DHT22;56303;52.160;-0.428;2023-04-28T12:50:49;16.20;99.90
20744;DHT22;56303;52.160;-0.428;2023-04-28T12:53:16;16.50;99.90
20744;DHT22;56303;52.160;-0.428;2023-04-28T12:55:44;16.90;99.90
20744;DHT22;56303;52.160;-0.428;2023-04-28T12:58:11;17.40;99.90
20744;DHT22;56303;52.160;-0.428;2023-04-28T13:00:38;17.20;99.90
20744;DHT22;56303;52.160;-0.428;2023-04-28T13:03:07;17.20;99.90
20744;DHT22;56303;52.160;-0.428;2023-04-28T13:05:34;17.20;99.90
20744;DHT22;56303;52.160;-0.428;2023-04-28T13:08:01;16.60;99.90
20744;DHT22;56303;52.160;-0.428;2023-04-28T13:10:28;16.70;99.90
20744;DHT22;56303;52.160;-0.428;2023-04-28T13:12:55;16.50;99.90
20744;DHT22;56303;52.160;-0.428;2023-04-28T13:15:22;16.60;99.90
20744;DHT22;56303;52.160;-0.428;2023-04-28T13:17:50;17.60;99.90
20744;DHT22;56303;52.160;-0.428;2023-04-28T13:20:18;18.50;99.90
20744;DHT22;56303;52.160;-0.428;2023-04-28T13:22:45;18.70;99.90
20744;DHT22;56303;52.160;-0.428;2023-04-28T13:25:12;18.00;99.90
20744;DHT22;56303;52.160;-0.428;2023-04-28T13:27:39;17.80;99.90
20744;DHT22;56303;52.160;-0.428;2023-04-28T13:30:09;18.00;99.90
20744;DHT22;56303;52.160;-0.428;2023-04-28T13:32:36;18.20;99.90
20744;DHT22;56303;52.160;-0.428;2023-04-28T13:35:04;18.00;99.90
20744;DHT22;56303;52.160;-0.428;2023-04-28T13:37:30;18.20;99.90
20744;DHT22;56303;52.160;-0.428;2023-04-28T13:39:58;18.80;99.90
20744;DHT22;56303;52.160;-0.428;2023-04-28T13:42:25;19.50;99.90
20744;DHT22;56303;52.160;-0.428;2023-04-28T13:44:52;19.60;99.90
20744;DHT22;56303;52.160;-0.428;2023-04-28T13:47:19;19.60;99.90
20744;DHT22;56303;52.160;-0.428;2023-04-28T13:49:46;20.30;99.90
20744;DHT22;56303;52.160;-0.428;2023-04-28T13:52:14;18.70;99.90
20744;DHT22;56303;52.160;-0.428;2023-04-28T13:54:41;18.40;99.90
20744;DHT22;56303;52.160;-0.428;2023-04-28T13:57:08;17.80;99.90
20744;DHT22;56303;52.160;-0.428;2023-04-28T13:59:35;18.40;99.90
20744;DHT22;56303;52.160;-0.428;2023-04-28T14:02:01;18.90;99.90
20744;DHT22;56303;52.160;-0.428;2023-04-28T14:04:29;19.60;99.90
20744;DHT22;56303;52.160;-0.428;2023-04-28T14:06:57;20.10;99.90
20744;DHT22;56303;52.160;-0.428;2023-04-28T14:09:24;21.10;99.90
20744;DHT22;56303;52.160;-0.428;2023-04-28T14:11:51;20.00;99.90
20744;DHT22;56303;52.160;-0.428;2023-04-28T14:14:17;19.10;99.90
20744;DHT22;56303;52.160;-0.428;2023-04-28T14:16:45;18.40;99.90
20744;DHT22;56303;52.160;-0.428;2023-04-28T14:19:13;18.50;99.90
20744;DHT22;56303;52.160;-0.428;2023-04-28T14:21:43;18.90;99.90
20744;DHT22;56303;52.160;-0.428;2023-04-28T14:24:09;18.90;99.90
20744;DHT22;56303;52.160;-0.428;2023-04-28T14:26:36;18.60;99.90
20744;DHT22;56303;52.160;-0.428;2023-04-28T14:29:03;18.80;99.90
20744;DHT22;56303;52.160;-0.428;2023-04-28T14:31:31;18.50;99.90
20744;DHT22;56303;52.160;-0.428;2023-04-28T14:33:58;19.10;99.90
20744;DHT22;56303;52.160;-0.428;2023-04-28T14:36:25;20.00;99.90
20744;DHT22;56303;52.160;-0.428;2023-04-28T14:38:52;19.80;99.90
20744;DHT22;56303;52.160;-0.428;2023-04-28T14:41:19;19.20;99.90
20744;DHT22;56303;52.160;-0.428;2023-04-28T14:43:46;19.20;99.90
20744;DHT22;56303;52.160;-0.428;2023-04-28T14:46:13;18.30;99.90
20744;DHT22;56303;52.160;-0.428;2023-04-28T14:48:40;18.10;99.90
20744;DHT22;56303;52.160;-0.428;2023-04-28T14:51:07;17.80;99.90
20744;DHT22;56303;52.160;-0.428;2023-04-28T14:53:34;18.30;99.90
20744;DHT22;56303;52.160;-0.428;2023-04-28T14:56:02;18.50;99.90
20744;DHT22;56303;52.160;-0.428;2023-04-28T14:58:44;18.60;99.90
20744;DHT22;56303;52.160;-0.428;2023-04-28T15:01:11;18.70;99.90
20744;DHT22;56303;52.160;-0.428;2023-04-28T15:03:38;18.40;99.90
20744;DHT22;56303;52.160;-0.428;2023-04-28T15:06:05;18.00;99.90
20744;DHT22;56303;52.160;-0.428;2023-04-28T15:08:32;18.50;99.90
20744;DHT22;56303;52.160;-0.428;2023-04-28T15:10:59;18.90;99.90
20744;DHT22;56303;52.160;-0.428;2023-04-28T15:13:25;19.00;99.90
20744;DHT22;56303;52.160;-0.428;2023-04-28T15:15:54;18.50;99.90
20744;DHT22;56303;52.160;-0.428;2023-04-28T15:18:21;18.10;99.90
20744;DHT22;56303;52.160;-0.428;2023-04-28T15:20:50;17.50;99.90
20744;DHT22;56303;52.160;-0.428;2023-04-28T15:23:17;17.90;99.90
20744;DHT22;56303;52.160;-0.428;2023-04-28T15:25:45;17.90;99.90
20744;DHT22;56303;52.160;-0.428;2023-04-28T15:28:12;18.30;99.90
20744;DHT22;56303;52.160;-0.428;2023-04-28T15:30:39;18.90;99.90
20744;DHT22;56303;52.160;-0.428;2023-04-28T15:33:06;18.90;99.90
20744;DHT22;56303;52.160;-0.428;2023-04-28T15:35:33;19.30;99.90
20744;DHT22;56303;52.160;-0.428;2023-04-28T15:38:00;19.10;99.90
20744;DHT22;56303;52.160;-0.428;2023-04-28T15:40:27;21.30;99.90
20744;DHT22;56303;52.160;-0.428;2023-04-28T15:42:54;19.50;99.90
20744;DHT22;56303;52.160;-0.428;2023-04-28T15:45:21;19.80;99.90